sensor_id;sensor_type;location;lat;lon;timestamp;P1;durP1;ratioP1;P2;durP2;ratioP2
76393;SDS011;65216;51.090;-115.352;2024-01-16T00:00:32;19.70;;;1.50;;
76393;SDS011;65216;51.090;-115.352;2024-01-16T00:02:59;14.50;;;2.20;;
76393;SDS011;65216;51.090;-115.352;2024-01-16T00:05:29;15.80;;;1.70;;
76393;SDS011;65216;51.090;-115.352;2024-01-16T00:07:58;16.90;;;1.80;;
76393;SDS011;65216;51.090;-115.352;2024-01-16T00:10:25;19.40;;;1.80;;
76393;SDS011;65216;51.090;-115.352;2024-01-16T00:12:53;19.60;;;1.80;;
76393;SDS011;65216;51.090;-115.352;2024-01-16T00:15:20;10.50;;;1.30;;
76393;SDS011;65216;51.090;-115.352;2024-01-16T00:17:47;12.90;;;1.40;;
76393;SDS011;65216;51.090;-115.352;2024-01-16T00:20:14;20.80;;;1.90;;
76393;SDS011;65216;51.090;-115.352;2024-01-16T00:22:41;22.70;;;2.00;;
76393;SDS011;65216;51.090;-115.352;2024-01-16T00:25:08;17.30;;;1.90;;
76393;SDS011;65216;51.090;-115.352;2024-01-16T00:27:35;12.70;;;1.80;;
76393;SDS011;65216;51.090;-115.352;2024-01-16T00:30:03;15.00;;;1.70;;
76393;SDS011;65216;51.090;-115.352;2024-01-16T00:32:33;16.30;;;2.10;;
76393;SDS011;65216;51.090;-115.352;2024-01-16T00:35:00;20.70;;;2.30;;
76393;SDS011;65216;51.090;-115.352;2024-01-16T00:37:26;13.90;;;1.70;;
76393;SDS011;65216;51.090;-115.352;2024-01-16T00:39:53;15.80;;;1.80;;
76393;SDS011;65216;51.090;-115.352;2024-01-16T00:42:20;18.80;;;1.70;;
76393;SDS011;65216;51.090;-115.352;2024-01-16T00:44:50;12.30;;;1.90;;
76393;SDS011;65216;51.090;-115.352;2024-01-16T00:47:17;12.60;;;1.80;;
76393;SDS011;65216;51.090;-115.352;2024-01-16T00:49:45;12.80;;;1.50;;
76393;SDS011;65216;51.090;-115.352;2024-01-16T00:52:13;15.40;;;1.60;;
76393;SDS011;65216;51.090;-115.352;2024-01-16T00:54:41;18.50;;;1.70;;
76393;SDS011;65216;51.090;-115.352;2024-01-16T00:57:09;16.40;;;1.80;;
76393;SDS011;65216;51.090;-115.352;2024-01-16T00:59:37;22.70;;;2.30;;
76393;SDS011;65216;51.090;-115.352;2024-01-16T01:02:03;20.10;;;2.20;;
76393;SDS011;65216;51.090;-115.352;2024-01-16T01:04:33;18.20;;;1.80;;
76393;SDS011;65216;51.090;-115.352;2024-01-16T01:07:02;16.00;;;1.70;;
76393;SDS011;65216;51.090;-115.352;2024-01-16T01:09:29;19.70;;;2.10;;
76393;SDS011;65216;51.090;-115.352;2024-01-16T01:11:58;19.50;;;2.70;;
76393;SDS011;65216;51.090;-115.352;2024-01-16T01:14:25;17.20;;;2.00;;
76393;SDS011;65216;51.090;-115.352;2024-01-16T01:16:54;15.30;;;2.00;;
76393;SDS011;65216;51.090;-115.352;2024-01-16T01:19:21;19.20;;;2.70;;
76393;SDS011;65216;51.090;-115.352;2024-01-16T01:21:48;19.10;;;2.10;;
76393;SDS011;65216;51.090;-115.352;2024-01-16T01:24:15;13.50;;;1.70;;
76393;SDS011;65216;51.090;-115.352;2024-01-16T01:26:45;14.20;;;1.60;;
76393;SDS011;65216;51.090;-115.352;2024-01-16T01:29:12;15.00;;;1.90;;
76393;SDS011;65216;51.090;-115.352;2024-01-16T01:31:39;17.30;;;2.00;;
76393;SDS011;65216;51.090;-115.352;2024-01-16T01:34:06;21.30;;;2.00;;
76393;SDS011;65216;51.090;-115.352;2024-01-16T01:36:33;21.90;;;2.20;;
76393;SDS011;65216;51.090;-115.352;2024-01-16T01:39:00;16.40;;;2.10;;
76393;SDS011;65216;51.090;-115.352;2024-01-16T01:41:28;21.80;;;1.90;;
76393;SDS011;65216;51.090;-115.352;2024-01-16T01:43:56;19.40;;;2.50;;
76393;SDS011;65216;51.090;-115.352;2024-01-16T01:46:23;15.60;;;1.80;;
76393;SDS011;65216;51.090;-115.352;2024-01-16T01:48:50;15.30;;;1.90;;
76393;SDS011;65216;51.090;-115.352;2024-01-16T01:51:19;20.70;;;2.30;;
76393;SDS011;65216;51.090;-115.352;2024-01-16T01:53:49;15.50;;;2.40;;
76393;SDS011;65216;51.090;-115.352;2024-01-16T01:56:18;16.80;;;1.60;;
76393;SDS011;65216;51.090;-115.352;2024-01-16T01:58:49;25.60;;;2.90;;
76393;SDS011;65216;51.090;-115.352;2024-01-16T02:01:20;20.50;;;2.40;;
76393;SDS011;65216;51.090;-115.352;2024-01-16T02:03:50;20.10;;;1.90;;
76393;SDS011;65216;51.090;-115.352;2024-01-16T02:06:18;18.80;;;1.90;;
76393;SDS011;65216;51.090;-115.352;2024-01-16T02:08:45;19.30;;;2.20;;
76393;SDS011;65216;51.090;-115.352;2024-01-16T02:11:17;15.50;;;2.00;;
76393;SDS011;65216;51.090;-115.352;2024-01-16T02:13:48;12.00;;;1.50;;
76393;SDS011;65216;51.090;-115.352;2024-01-16T02:16:22;17.40;;;1.80;;
76393;SDS011;65216;51.090;-115.352;2024-01-16T02:18:50;14.20;;;1.80;;
76393;SDS011;65216;51.090;-115.352;2024-01-16T02:21:21;17.90;;;1.90;;
76393;SDS011;65216;51.090;-115.352;2024-01-16T02:23:49;16.90;;;1.80;;
76393;SDS011;65216;51.090;-115.352;2024-01-16T02:26:18;18.10;;;2.00;;
76393;SDS011;65216;51.090;-115.352;2024-01-16T02:28:45;21.10;;;2.10;;
76393;SDS011;65216;51.090;-115.352;2024-01-16T02:31:12;22.50;;;1.80;;
76393;SDS011;65216;51.090;-115.352;2024-01-16T02:33:39;19.90;;;2.20;;
76393;SDS011;65216;51.090;-115.352;2024-01-16T02:36:06;11.50;;;1.50;;
76393;SDS011;65216;51.090;-115.352;2024-01-16T02:38:36;19.70;;;1.60;;
76393;SDS011;65216;51.090;-115.352;2024-01-16T02:41:04;19.60;;;1.70;;
76393;SDS011;65216;51.090;-115.352;2024-01-16T02:43:31;25.40;;;2.20;;
76393;SDS011;65216;51.090;-115.352;2024-01-16T02:45:59;15.70;;;1.60;;
76393;SDS011;65216;51.090;-115.352;2024-01-16T02:48:26;17.30;;;2.00;;
76393;SDS011;65216;51.090;-115.352;2024-01-16T02:50:55;20.70;;;1.90;;
76393;SDS011;65216;51.090;-115.352;2024-01-16T02:53:22;15.70;;;1.80;;
76393;SDS011;65216;51.090;-115.352;2024-01-16T02:55:51;16.80;;;2.60;;
76393;SDS011;65216;51.090;-115.352;2024-01-16T02:58:19;14.20;;;1.80;;
76393;SDS011;65216;51.090;-115.352;2024-01-16T03:00:47;23.40;;;2.00;;
76393;SDS011;65216;51.090;-115.352;2024-01-16T03:03:14;14.60;;;2.20;;
76393;SDS011;65216;51.090;-115.352;2024-01-16T03:05:41;14.80;;;1.60;;
76393;SDS011;65216;51.090;-115.352;2024-01-16T03:08:08;10.30;;;2.10;;
76393;SDS011;65216;51.090;-115.352;2024-01-16T03:10:34;21.30;;;2.10;;
76393;SDS011;65216;51.090;-115.352;2024-01-16T03:13:02;13.70;;;1.70;;
76393;SDS011;65216;51.090;-115.352;2024-01-16T03:15:29;28.40;;;2.10;;
76393;SDS011;65216;51.090;-115.352;2024-01-16T03:17:58;13.00;;;2.20;;
76393;SDS011;65216;51.090;-115.352;2024-01-16T03:20:30;20.40;;;2.20;;
76393;SDS011;65216;51.090;-115.352;2024-01-16T03:22:57;14.60;;;1.70;;
76393;SDS011;65216;51.090;-115.352;2024-01-16T03:25:24;14.20;;;2.10;;
76393;SDS011;65216;51.090;-115.352;2024-01-16T03:27:51;12.90;;;1.50;;
76393;SDS011;65216;51.090;-115.352;2024-01-16T03:30:17;15.20;;;1.80;;
76393;SDS011;65216;51.090;-115.352;2024-01-16T03:32:44;17.70;;;1.80;;
76393;SDS011;65216;51.090;-115.352;2024-01-16T03:35:11;14.10;;;1.80;;
76393;SDS011;65216;51.090;-115.352;2024-01-16T03:37:38;12.10;;;1.30;;
76393;SDS011;65216;51.090;-115.352;2024-01-16T03:40:05;14.20;;;1.50;;
76393;SDS011;65216;51.090;-115.352;2024-01-16T03:42:33;11.30;;;1.50;;
76393;SDS011;65216;51.090;-115.352;2024-01-16T03:45:03;17.00;;;1.70;;
76393;SDS011;65216;51.090;-115.352;2024-01-16T03:47:32;13.90;;;1.70;;
76393;SDS011;65216;51.090;-115.352;2024-01-16T03:49:58;15.60;;;2.10;;
76393;SDS011;65216;51.090;-115.352;2024-01-16T03:52:25;20.30;;;1.80;;
76393;SDS011;65216;51.090;-115.352;2024-01-16T03:54:53;17.30;;;1.80;;
76393;SDS011;65216;51.090;-115.352;2024-01-16T03:57:19;16.30;;;1.50;;
76393;SDS011;65216;51.090;-115.352;2024-01-16T03:59:46;12.20;;;1.30;;
76393;SDS011;65216;51.090;-115.352;2024-01-16T04:02:13;14.90;;;1.30;;
76393;SDS011;65216;51.090;-115.352;2024-01-16T04:04:40;13.00;;;1.20;;
76393;SDS011;65216;51.090;-115.352;2024-01-16T04:07:10;11.90;;;1.40;;
76393;SDS011;65216;51.090;-115.352;2024-01-16T04:09:37;16.50;;;1.60;;
76393;SDS011;65216;51.090;-115.352;2024-01-16T04:12:04;9.80;;;1.30;;
76393;SDS011;65216;51.090;-115.352;2024-01-16T04:14:34;13.80;;;1.40;;
76393;SDS011;65216;51.090;-115.352;2024-01-16T04:17:02;9.70;;;1.00;;
76393;SDS011;65216;51.090;-115.352;2024-01-16T04:19:29;9.30;;;1.20;;
76393;SDS011;65216;51.090;-115.352;2024-01-16T04:22:00;10.80;;;1.10;;
76393;SDS011;65216;51.090;-115.352;2024-01-16T04:24:27;6.30;;;1.10;;
76393;SDS011;65216;51.090;-115.352;2024-01-16T04:26:54;10.20;;;1.30;;
76393;SDS011;65216;51.090;-115.352;2024-01-16T04:29:21;10.80;;;1.10;;
76393;SDS011;65216;51.090;-115.352;2024-01-16T04:31:49;11.60;;;1.20;;
76393;SDS011;65216;51.090;-115.352;2024-01-16T04:34:16;8.60;;;1.00;;
76393;SDS011;65216;51.090;-115.352;2024-01-16T04:36:43;10.60;;;0.90;;
76393;SDS011;65216;51.090;-115.352;2024-01-16T04:39:10;14.10;;;1.20;;
76393;SDS011;65216;51.090;-115.352;2024-01-16T04:41:37;9.40;;;1.00;;
76393;SDS011;65216;51.090;-115.352;2024-01-16T04:44:05;9.90;;;1.20;;
76393;SDS011;65216;51.090;-115.352;2024-01-16T04:46:31;13.10;;;1.20;;
76393;SDS011;65216;51.090;-115.352;2024-01-16T04:48:58;20.80;;;1.40;;
76393;SDS011;65216;51.090;-115.352;2024-01-16T04:51:26;12.90;;;1.30;;
76393;SDS011;65216;51.090;-115.352;2024-01-16T04:53:52;12.70;;;1.40;;
76393;SDS011;65216;51.090;-115.352;2024-01-16T04:56:21;8.80;;;1.20;;
76393;SDS011;65216;51.090;-115.352;2024-01-16T04:58:48;10.10;;;1.10;;
76393;SDS011;65216;51.090;-115.352;2024-01-16T05:01:15;9.10;;;1.10;;
76393;SDS011;65216;51.090;-115.352;2024-01-16T05:03:45;8.80;;;0.90;;
76393;SDS011;65216;51.090;-115.352;2024-01-16T05:06:15;5.80;;;0.90;;
76393;SDS011;65216;51.090;-115.352;2024-01-16T05:08:43;4.90;;;0.60;;
76393;SDS011;65216;51.090;-115.352;2024-01-16T05:11:10;5.60;;;0.90;;
76393;SDS011;65216;51.090;-115.352;2024-01-16T05:13:37;7.10;;;0.80;;
76393;SDS011;65216;51.090;-115.352;2024-01-16T05:16:04;5.40;;;0.60;;
76393;SDS011;65216;51.090;-115.352;2024-01-16T05:18:32;4.10;;;0.70;;
76393;SDS011;65216;51.090;-115.352;2024-01-16T05:20:59;2.70;;;0.40;;
76393;SDS011;65216;51.090;-115.352;2024-01-16T05:23:28;5.20;;;0.40;;
76393;SDS011;65216;51.090;-115.352;2024-01-16T05:25:54;2.50;;;0.60;;
76393;SDS011;65216;51.090;-115.352;2024-01-16T05:28:24;2.60;;;0.40;;
76393;SDS011;65216;51.090;-115.352;2024-01-16T05:30:53;4.30;;;0.60;;
76393;SDS011;65216;51.090;-115.352;2024-01-16T05:33:21;5.00;;;0.40;;
76393;SDS011;65216;51.090;-115.352;2024-01-16T05:35:48;4.20;;;0.60;;
76393;SDS011;65216;51.090;-115.352;2024-01-16T05:38:15;6.40;;;0.60;;
76393;SDS011;65216;51.090;-115.352;2024-01-16T05:40:42;1.70;;;0.30;;
76393;SDS011;65216;51.090;-115.352;2024-01-16T05:43:09;4.30;;;0.50;;
76393;SDS011;65216;51.090;-115.352;2024-01-16T05:45:36;2.90;;;0.70;;
76393;SDS011;65216;51.090;-115.352;2024-01-16T05:48:03;4.10;;;0.60;;
76393;SDS011;65216;51.090;-115.352;2024-01-16T05:50:37;4.70;;;0.60;;
76393;SDS011;65216;51.090;-115.352;2024-01-16T05:53:04;6.00;;;0.60;;
76393;SDS011;65216;51.090;-115.352;2024-01-16T05:55:30;4.30;;;0.50;;
76393;SDS011;65216;51.090;-115.352;2024-01-16T05:57:58;3.30;;;0.60;;
76393;SDS011;65216;51.090;-115.352;2024-01-16T06:00:26;3.60;;;0.40;;
76393;SDS011;65216;51.090;-115.352;2024-01-16T06:02:52;2.60;;;0.40;;
76393;SDS011;65216;51.090;-115.352;2024-01-16T06:05:20;4.30;;;0.60;;
76393;SDS011;65216;51.090;-115.352;2024-01-16T06:07:47;4.70;;;0.50;;
76393;SDS011;65216;51.090;-115.352;2024-01-16T06:10:14;2.20;;;0.50;;
76393;SDS011;65216;51.090;-115.352;2024-01-16T06:12:41;4.40;;;0.60;;
76393;SDS011;65216;51.090;-115.352;2024-01-16T06:15:08;8.70;;;0.70;;
76393;SDS011;65216;51.090;-115.352;2024-01-16T06:17:37;6.80;;;1.00;;
76393;SDS011;65216;51.090;-115.352;2024-01-16T06:20:04;1.40;;;0.40;;
76393;SDS011;65216;51.090;-115.352;2024-01-16T06:22:32;3.20;;;0.70;;
76393;SDS011;65216;51.090;-115.352;2024-01-16T06:24:59;4.80;;;0.60;;
76393;SDS011;65216;51.090;-115.352;2024-01-16T06:27:27;3.10;;;0.60;;
76393;SDS011;65216;51.090;-115.352;2024-01-16T06:29:54;3.80;;;0.80;;
76393;SDS011;65216;51.090;-115.352;2024-01-16T06:32:24;3.40;;;0.60;;
76393;SDS011;65216;51.090;-115.352;2024-01-16T06:34:53;4.40;;;0.70;;
76393;SDS011;65216;51.090;-115.352;2024-01-16T06:37:20;1.90;;;0.70;;
76393;SDS011;65216;51.090;-115.352;2024-01-16T06:39:47;3.40;;;0.50;;
76393;SDS011;65216;51.090;-115.352;2024-01-16T06:42:14;3.70;;;0.70;;
76393;SDS011;65216;51.090;-115.352;2024-01-16T06:44:40;4.30;;;0.50;;
76393;SDS011;65216;51.090;-115.352;2024-01-16T06:47:08;2.90;;;0.50;;
76393;SDS011;65216;51.090;-115.352;2024-01-16T06:49:37;5.40;;;0.60;;
76393;SDS011;65216;51.090;-115.352;2024-01-16T06:52:04;2.00;;;0.40;;
76393;SDS011;65216;51.090;-115.352;2024-01-16T06:54:31;1.90;;;0.50;;
76393;SDS011;65216;51.090;-115.352;2024-01-16T06:56:57;3.40;;;0.40;;
76393;SDS011;65216;51.090;-115.352;2024-01-16T06:59:24;2.00;;;0.50;;
76393;SDS011;65216;51.090;-115.352;2024-01-16T07:01:51;1.30;;;0.30;;
76393;SDS011;65216;51.090;-115.352;2024-01-16T07:04:20;2.40;;;0.50;;
76393;SDS011;65216;51.090;-115.352;2024-01-16T07:06:47;2.40;;;0.40;;
76393;SDS011;65216;51.090;-115.352;2024-01-16T07:09:14;1.50;;;0.20;;
76393;SDS011;65216;51.090;-115.352;2024-01-16T07:11:42;0.70;;;0.30;;
76393;SDS011;65216;51.090;-115.352;2024-01-16T07:14:10;2.00;;;0.60;;
76393;SDS011;65216;51.090;-115.352;2024-01-16T07:16:37;1.50;;;0.30;;
76393;SDS011;65216;51.090;-115.352;2024-01-16T07:19:05;0.30;;;0.10;;
76393;SDS011;65216;51.090;-115.352;2024-01-16T07:21:32;1.20;;;0.30;;
76393;SDS011;65216;51.090;-115.352;2024-01-16T07:23:59;2.20;;;0.10;;
76393;SDS011;65216;51.090;-115.352;2024-01-16T07:26:26;1.50;;;0.20;;
76393;SDS011;65216;51.090;-115.352;2024-01-16T07:28:55;0.80;;;0.20;;
76393;SDS011;65216;51.090;-115.352;2024-01-16T07:31:23;1.60;;;0.30;;
76393;SDS011;65216;51.090;-115.352;2024-01-16T07:33:50;0.90;;;0.20;;
76393;SDS011;65216;51.090;-115.352;2024-01-16T07:36:17;1.10;;;0.20;;
76393;SDS011;65216;51.090;-115.352;2024-01-16T07:38:44;0.70;;;0.20;;
76393;SDS011;65216;51.090;-115.352;2024-01-16T07:41:11;0.80;;;0.40;;
76393;SDS011;65216;51.090;-115.352;2024-01-16T07:43:38;0.20;;;0.10;;
76393;SDS011;65216;51.090;-115.352;2024-01-16T07:46:05;0.10;;;0.10;;
76393;SDS011;65216;51.090;-115.352;2024-01-16T07:48:32;0.40;;;0.10;;
76393;SDS011;65216;51.090;-115.352;2024-01-16T07:50:59;0.30;;;0.10;;
76393;SDS011;65216;51.090;-115.352;2024-01-16T07:53:25;1.90;;;0.40;;
76393;SDS011;65216;51.090;-115.352;2024-01-16T07:55:54;0.10;;;0.00;;
76393;SDS011;65216;51.090;-115.352;2024-01-16T07:58:21;0.60;;;0.20;;
76393;SDS011;65216;51.090;-115.352;2024-01-16T08:00:48;0.00;;;0.00;;
76393;SDS011;65216;51.090;-115.352;2024-01-16T08:03:15;1.00;;;0.10;;
76393;SDS011;65216;51.090;-115.352;2024-01-16T08:05:42;0.20;;;0.00;;
76393;SDS011;65216;51.090;-115.352;2024-01-16T08:08:09;0.40;;;0.10;;
76393;SDS011;65216;51.090;-115.352;2024-01-16T08:10:36;0.20;;;0.00;;
76393;SDS011;65216;51.090;-115.352;2024-01-16T08:13:05;0.20;;;0.00;;
76393;SDS011;65216;51.090;-115.352;2024-01-16T08:15:32;0.20;;;0.00;;
76393;SDS011;65216;51.090;-115.352;2024-01-16T08:18:00;0.50;;;0.10;;
76393;SDS011;65216;51.090;-115.352;2024-01-16T08:20:27;0.40;;;0.20;;
76393;SDS011;65216;51.090;-115.352;2024-01-16T08:22:54;0.00;;;0.00;;
76393;SDS011;65216;51.090;-115.352;2024-01-16T08:25:21;0.60;;;0.00;;
76393;SDS011;65216;51.090;-115.352;2024-01-16T08:27:48;0.10;;;0.10;;
76393;SDS011;65216;51.090;-115.352;2024-01-16T08:30:15;0.10;;;0.00;;
76393;SDS011;65216;51.090;-115.352;2024-01-16T08:32:45;0.40;;;0.10;;
76393;SDS011;65216;51.090;-115.352;2024-01-16T08:35:12;1.10;;;0.10;;
76393;SDS011;65216;51.090;-115.352;2024-01-16T08:37:39;0.40;;;0.30;;
76393;SDS011;65216;51.090;-115.352;2024-01-16T08:40:06;0.70;;;0.10;;
76393;SDS011;65216;51.090;-115.352;2024-01-16T08:42:33;0.20;;;0.10;;
76393;SDS011;65216;51.090;-115.352;2024-01-16T08:45:00;0.10;;;0.10;;
76393;SDS011;65216;51.090;-115.352;2024-01-16T08:47:27;0.60;;;0.10;;
76393;SDS011;65216;51.090;-115.352;2024-01-16T08:49:54;0.30;;;0.20;;
76393;SDS011;65216;51.090;-115.352;2024-01-16T08:52:21;0.10;;;0.00;;
76393;SDS011;65216;51.090;-115.352;2024-01-16T08:54:48;0.90;;;0.10;;
76393;SDS011;65216;51.090;-115.352;2024-01-16T08:57:15;1.60;;;0.10;;
76393;SDS011;65216;51.090;-115.352;2024-01-16T08:59:42;0.10;;;0.00;;
76393;SDS011;65216;51.090;-115.352;2024-01-16T09:02:09;0.30;;;0.10;;
76393;SDS011;65216;51.090;-115.352;2024-01-16T09:04:36;0.10;;;0.10;;
76393;SDS011;65216;51.090;-115.352;2024-01-16T09:07:03;0.60;;;0.00;;
76393;SDS011;65216;51.090;-115.352;2024-01-16T09:09:30;0.00;;;0.00;;
76393;SDS011;65216;51.090;-115.352;2024-01-16T09:11:57;0.20;;;0.00;;
76393;SDS011;65216;51.090;-115.352;2024-01-16T09:14:24;0.20;;;0.10;;
76393;SDS011;65216;51.090;-115.352;2024-01-16T09:16:52;1.40;;;0.10;;
76393;SDS011;65216;51.090;-115.352;2024-01-16T09:19:21;0.00;;;0.00;;
76393;SDS011;65216;51.090;-115.352;2024-01-16T09:21:48;0.10;;;0.00;;
76393;SDS011;65216;51.090;-115.352;2024-01-16T09:24:17;0.40;;;0.10;;
76393;SDS011;65216;51.090;-115.352;2024-01-16T09:26:45;0.00;;;0.00;;
76393;SDS011;65216;51.090;-115.352;2024-01-16T09:29:12;0.00;;;0.00;;
76393;SDS011;65216;51.090;-115.352;2024-01-16T09:31:41;0.00;;;0.00;;
76393;SDS011;65216;51.090;-115.352;2024-01-16T09:34:08;0.00;;;0.00;;
76393;SDS011;65216;51.090;-115.352;2024-01-16T09:36:36;0.00;;;0.00;;
76393;SDS011;65216;51.090;-115.352;2024-01-16T09:39:05;0.20;;;0.10;;
76393;SDS011;65216;51.090;-115.352;2024-01-16T09:41:37;0.00;;;0.00;;
76393;SDS011;65216;51.090;-115.352;2024-01-16T09:44:05;0.00;;;0.00;;
76393;SDS011;65216;51.090;-115.352;2024-01-16T09:46:38;0.10;;;0.00;;
76393;SDS011;65216;51.090;-115.352;2024-01-16T09:49:06;0.20;;;0.10;;
76393;SDS011;65216;51.090;-115.352;2024-01-16T09:51:34;0.10;;;0.00;;
76393;SDS011;65216;51.090;-115.352;2024-01-16T09:54:01;0.00;;;0.00;;
76393;SDS011;65216;51.090;-115.352;2024-01-16T09:56:38;0.20;;;0.20;;
76393;SDS011;65216;51.090;-115.352;2024-01-16T09:59:09;0.30;;;0.10;;
76393;SDS011;65216;51.090;-115.352;2024-01-16T10:01:39;0.70;;;0.10;;
76393;SDS011;65216;51.090;-115.352;2024-01-16T10:04:07;0.60;;;0.10;;
76393;SDS011;65216;51.090;-115.352;2024-01-16T10:06:38;0.70;;;0.00;;
76393;SDS011;65216;51.090;-115.352;2024-01-16T10:09:05;0.30;;;0.10;;
76393;SDS011;65216;51.090;-115.352;2024-01-16T10:11:33;0.20;;;0.00;;
76393;SDS011;65216;51.090;-115.352;2024-01-16T10:14:00;1.30;;;0.20;;
76393;SDS011;65216;51.090;-115.352;2024-01-16T10:17:01;0.10;;;0.00;;
76393;SDS011;65216;51.090;-115.352;2024-01-16T10:19:31;0.30;;;0.10;;
76393;SDS011;65216;51.090;-115.352;2024-01-16T10:22:03;1.40;;;0.20;;
76393;SDS011;65216;51.090;-115.352;2024-01-16T10:24:32;0.50;;;0.20;;
76393;SDS011;65216;51.090;-115.352;2024-01-16T10:27:02;0.50;;;0.10;;
76393;SDS011;65216;51.090;-115.352;2024-01-16T10:29:29;0.10;;;0.00;;
76393;SDS011;65216;51.090;-115.352;2024-01-16T10:32:00;0.00;;;0.00;;
76393;SDS011;65216;51.090;-115.352;2024-01-16T10:34:27;1.20;;;0.10;;
76393;SDS011;65216;51.090;-115.352;2024-01-16T10:36:59;0.60;;;0.10;;
76393;SDS011;65216;51.090;-115.352;2024-01-16T10:39:27;0.00;;;0.00;;
76393;SDS011;65216;51.090;-115.352;2024-01-16T10:41:57;0.60;;;0.10;;
76393;SDS011;65216;51.090;-115.352;2024-01-16T10:44:25;0.10;;;0.10;;
76393;SDS011;65216;51.090;-115.352;2024-01-16T10:47:09;1.00;;;0.10;;
76393;SDS011;65216;51.090;-115.352;2024-01-16T10:49:39;0.80;;;0.10;;
76393;SDS011;65216;51.090;-115.352;2024-01-16T10:52:10;0.00;;;0.00;;
76393;SDS011;65216;51.090;-115.352;2024-01-16T10:54:41;0.50;;;0.00;;
76393;SDS011;65216;51.090;-115.352;2024-01-16T10:57:13;1.60;;;0.20;;
76393;SDS011;65216;51.090;-115.352;2024-01-16T10:59:46;0.20;;;0.10;;
76393;SDS011;65216;51.090;-115.352;2024-01-16T11:04:53;1.20;;;0.10;;
76393;SDS011;65216;51.090;-115.352;2024-01-16T11:07:22;0.60;;;0.10;;
76393;SDS011;65216;51.090;-115.352;2024-01-16T11:09:52;0.60;;;0.00;;
76393;SDS011;65216;51.090;-115.352;2024-01-16T11:12:21;0.70;;;0.00;;
76393;SDS011;65216;51.090;-115.352;2024-01-16T11:14:52;0.80;;;0.10;;
76393;SDS011;65216;51.090;-115.352;2024-01-16T11:17:19;1.50;;;0.10;;
76393;SDS011;65216;51.090;-115.352;2024-01-16T11:19:48;2.00;;;0.10;;
76393;SDS011;65216;51.090;-115.352;2024-01-16T11:22:16;0.40;;;0.10;;
76393;SDS011;65216;51.090;-115.352;2024-01-16T11:25:14;0.30;;;0.10;;
76393;SDS011;65216;51.090;-115.352;2024-01-16T11:27:43;0.50;;;0.10;;
76393;SDS011;65216;51.090;-115.352;2024-01-16T11:30:11;0.40;;;0.00;;
76393;SDS011;65216;51.090;-115.352;2024-01-16T11:32:53;0.30;;;0.10;;
76393;SDS011;65216;51.090;-115.352;2024-01-16T11:35:36;0.30;;;0.00;;
76393;SDS011;65216;51.090;-115.352;2024-01-16T11:40:43;0.00;;;0.00;;
76393;SDS011;65216;51.090;-115.352;2024-01-16T11:46:06;0.10;;;0.00;;
76393;SDS011;65216;51.090;-115.352;2024-01-16T11:48:34;0.20;;;0.00;;
76393;SDS011;65216;51.090;-115.352;2024-01-16T11:51:23;0.00;;;0.00;;
76393;SDS011;65216;51.090;-115.352;2024-01-16T11:53:51;0.00;;;0.00;;
76393;SDS011;65216;51.090;-115.352;2024-01-16T11:56:29;0.00;;;0.00;;
76393;SDS011;65216;51.090;-115.352;2024-01-16T11:59:14;0.20;;;0.10;;
76393;SDS011;65216;51.090;-115.352;2024-01-16T12:01:45;0.20;;;0.00;;
76393;SDS011;65216;51.090;-115.352;2024-01-16T12:04:16;0.10;;;0.00;;
76393;SDS011;65216;51.090;-115.352;2024-01-16T12:06:57;0.80;;;0.00;;
76393;SDS011;65216;51.090;-115.352;2024-01-16T12:09:26;0.00;;;0.00;;
76393;SDS011;65216;51.090;-115.352;2024-01-16T12:14:29;0.30;;;0.10;;
76393;SDS011;65216;51.090;-115.352;2024-01-16T12:19:38;0.00;;;0.00;;
76393;SDS011;65216;51.090;-115.352;2024-01-16T12:22:13;0.20;;;0.00;;
76393;SDS011;65216;51.090;-115.352;2024-01-16T12:24:41;0.00;;;0.00;;
76393;SDS011;65216;51.090;-115.352;2024-01-16T12:27:09;0.10;;;0.00;;
76393;SDS011;65216;51.090;-115.352;2024-01-16T12:29:35;0.00;;;0.00;;
76393;SDS011;65216;51.090;-115.352;2024-01-16T12:32:09;0.00;;;0.00;;
76393;SDS011;65216;51.090;-115.352;2024-01-16T12:34:45;0.10;;;0.10;;
76393;SDS011;65216;51.090;-115.352;2024-01-16T12:37:15;0.00;;;0.00;;
76393;SDS011;65216;51.090;-115.352;2024-01-16T12:39:42;0.20;;;0.10;;
76393;SDS011;65216;51.090;-115.352;2024-01-16T12:42:10;0.50;;;0.20;;
76393;SDS011;65216;51.090;-115.352;2024-01-16T12:44:38;0.40;;;0.10;;
76393;SDS011;65216;51.090;-115.352;2024-01-16T12:47:06;0.00;;;0.00;;
76393;SDS011;65216;51.090;-115.352;2024-01-16T12:49:40;0.10;;;0.10;;
76393;SDS011;65216;51.090;-115.352;2024-01-16T12:52:21;0.20;;;0.10;;
76393;SDS011;65216;51.090;-115.352;2024-01-16T12:55:01;0.00;;;0.00;;
76393;SDS011;65216;51.090;-115.352;2024-01-16T12:57:30;0.30;;;0.00;;
76393;SDS011;65216;51.090;-115.352;2024-01-16T12:59:57;0.00;;;0.00;;
76393;SDS011;65216;51.090;-115.352;2024-01-16T13:02:26;0.00;;;0.00;;
76393;SDS011;65216;51.090;-115.352;2024-01-16T13:04:57;0.10;;;0.10;;
76393;SDS011;65216;51.090;-115.352;2024-01-16T13:07:26;0.00;;;0.00;;
76393;SDS011;65216;51.090;-115.352;2024-01-16T13:10:09;0.20;;;0.10;;
76393;SDS011;65216;51.090;-115.352;2024-01-16T13:12:44;0.70;;;0.00;;
76393;SDS011;65216;51.090;-115.352;2024-01-16T13:15:11;0.20;;;0.10;;
76393;SDS011;65216;51.090;-115.352;2024-01-16T13:17:42;0.00;;;0.00;;
76393;SDS011;65216;51.090;-115.352;2024-01-16T13:20:09;0.00;;;0.00;;
76393;SDS011;65216;51.090;-115.352;2024-01-16T13:22:39;0.00;;;0.00;;
76393;SDS011;65216;51.090;-115.352;2024-01-16T13:25:06;0.60;;;0.10;;
76393;SDS011;65216;51.090;-115.352;2024-01-16T13:27:33;0.20;;;0.00;;
76393;SDS011;65216;51.090;-115.352;2024-01-16T13:30:00;0.70;;;0.00;;
76393;SDS011;65216;51.090;-115.352;2024-01-16T13:32:27;0.00;;;0.00;;
76393;SDS011;65216;51.090;-115.352;2024-01-16T13:34:54;0.00;;;0.00;;
76393;SDS011;65216;51.090;-115.352;2024-01-16T13:37:22;0.00;;;0.00;;
76393;SDS011;65216;51.090;-115.352;2024-01-16T13:39:51;0.10;;;0.00;;
76393;SDS011;65216;51.090;-115.352;2024-01-16T13:42:21;0.00;;;0.00;;
76393;SDS011;65216;51.090;-115.352;2024-01-16T13:44:49;0.00;;;0.00;;
76393;SDS011;65216;51.090;-115.352;2024-01-16T13:47:18;0.00;;;0.00;;
76393;SDS011;65216;51.090;-115.352;2024-01-16T13:49:45;0.40;;;0.00;;
76393;SDS011;65216;51.090;-115.352;2024-01-16T13:52:13;0.30;;;0.00;;
76393;SDS011;65216;51.090;-115.352;2024-01-16T13:54:39;0.00;;;0.00;;
76393;SDS011;65216;51.090;-115.352;2024-01-16T13:57:09;0.00;;;0.00;;
76393;SDS011;65216;51.090;-115.352;2024-01-16T13:59:37;0.00;;;0.00;;
76393;SDS011;65216;51.090;-115.352;2024-01-16T14:02:05;0.20;;;0.10;;
76393;SDS011;65216;51.090;-115.352;2024-01-16T14:04:34;0.10;;;0.10;;
76393;SDS011;65216;51.090;-115.352;2024-01-16T14:07:01;0.70;;;0.10;;
76393;SDS011;65216;51.090;-115.352;2024-01-16T14:09:33;0.20;;;0.00;;
76393;SDS011;65216;51.090;-115.352;2024-01-16T14:12:00;0.60;;;0.10;;
76393;SDS011;65216;51.090;-115.352;2024-01-16T14:14:27;0.80;;;0.00;;
76393;SDS011;65216;51.090;-115.352;2024-01-16T14:16:54;0.00;;;0.00;;
76393;SDS011;65216;51.090;-115.352;2024-01-16T14:19:22;0.00;;;0.00;;
76393;SDS011;65216;51.090;-115.352;2024-01-16T14:21:52;0.00;;;0.00;;
76393;SDS011;65216;51.090;-115.352;2024-01-16T14:24:20;0.40;;;0.00;;